Time;durP1;ratioP1;P1;durP2;ratioP2;P2;SDS_P1;SDS_P2;PMS_P1;PMS_P2;Temp;Humidity;BMP_temperature;BMP_pressure;BME280_temperature;BME280_humidity;BME280_pressure;Samples;Min_cycle;Max_cycle;Signal;HPM_P1;HPM_P2
2022/05/03 00:01:38;;;;;;;9.43;7.00;;;;;;;8.81;97.33;98465.63;4896990;29;20171;-87
2022/05/03 00:04:31;;;;;;;9.80;6.73;;;;;;;12.79;98.88;99169.38;4896225;29;20288;-88
2022/05/03 00:07:20;;;;;;;12.73;7.80;;;;;;;10.56;98.96;98783.41;4881148;29;20202;-87
2022/05/03 00:09:55;;;;;;;10.40;7.63;;;;;;;12.71;100.00;99132.72;4896347;29;20254;-87
2022/05/03 00:12:27;;;;;;;12.97;7.63;;;;;;;10.42;100.00;98741.59;4896453;29;20189;-88
2022/05/03 00:14:58;;;;;;;11.13;8.17;;;;;;;8.78;100.00;98477.28;4896513;29;20924;-87
2022/05/03 00:17:25;;;;;;;10.40;7.50;;;;;;;12.84;99.01;99133.13;4896012;29;20199;-88
2022/05/03 00:19:53;;;;;;;13.47;7.87;;;;;;;10.05;98.50;98663.59;4895981;29;20202;-88
2022/05/03 00:22:19;;;;;;;12.67;8.30;;;;;;;9.06;100.00;98496.78;4896614;29;20197;-88
2022/05/03 00:24:45;;;;;;;11.20;8.10;;;;;;;8.79;100.00;98456.25;4901978;29;20225;-86
2022/05/03 00:27:12;;;;;;;12.10;8.37;;;;;;;10.00;100.00;98665.09;4920585;28;20199;-87
2022/05/03 00:29:38;;;;;;;11.73;8.23;;;;;;;12.81;100.00;99117.78;4924697;28;20203;-87
2022/05/03 00:32:04;;;;;;;11.87;8.37;;;;;;;10.28;100.00;98730.16;4935844;29;20248;-87
2022/05/03 00:34:32;;;;;;;12.13;8.93;;;;;;;9.71;100.00;98605.13;4951556;28;20193;-87
2022/05/03 00:36:57;;;;;;;14.23;9.00;;;;;;;10.19;100.00;98697.81;5001033;28;20150;-87
2022/05/03 00:39:23;;;;;;;11.53;8.87;;;;;;;9.14;100.00;98543.34;5004260;28;20167;-87
2022/05/03 00:42:16;;;;;;;13.90;9.27;;;;;;;9.18;100.00;98530.00;4993093;28;20251;-87
2022/05/03 00:45:03;;;;;;;15.60;9.53;;;;;;;10.04;100.00;98707.38;4934322;29;20189;-87
2022/05/03 00:47:54;;;;;;;15.40;9.60;;;;;;;12.59;100.00;99117.94;4918596;29;20268;-88
2022/05/03 00:50:53;;;;;;;13.50;9.90;;;;;;;12.50;100.00;99124.44;4918014;29;20193;-88
2022/05/03 00:53:24;;;;;;;14.90;10.17;;;;;;;11.62;100.00;98976.94;4933560;29;20169;-88
2022/05/03 00:55:59;;;;;;;15.13;10.50;;;;;;;12.54;100.00;99121.16;4917784;29;20185;-87
2022/05/03 00:58:44;;;;;;;14.50;10.10;;;;;;;10.58;100.00;98790.25;4933144;29;20181;-87
2022/05/03 01:01:38;;;;;;;14.43;9.80;;;;;;;12.57;100.00;99121.25;4933472;29;20173;-88
2022/05/03 01:04:03;;;;;;;13.47;9.50;;;;;;;11.80;100.00;98987.69;4935744;29;20184;-87
2022/05/03 01:06:43;;;;;;;15.43;10.50;;;;;;;12.50;100.00;99117.66;4921561;29;20288;-87
2022/05/03 01:09:09;;;;;;;13.30;10.00;;;;;;;10.28;100.00;98763.03;4933175;29;20189;-89
2022/05/03 01:11:46;;;;;;;13.80;10.17;;;;;;;12.30;100.00;99086.59;4933633;29;20272;-88
2022/05/03 01:14:14;;;;;;;14.27;10.10;;;;;;;12.44;100.00;99113.25;4933843;29;20222;-88
2022/05/03 01:16:59;;;;;;;15.03;10.00;;;;;;;9.50;100.00;98625.47;4932751;29;20208;-88
2022/05/03 01:19:43;;;;;;;15.67;11.17;;;;;;;12.41;100.00;99108.06;4917343;29;20211;-87
2022/05/03 01:22:18;;;;;;;15.10;10.80;;;;;;;12.36;100.00;99113.84;4974066;28;20194;-88
2022/05/03 01:24:46;;;;;;;14.00;9.93;;;;;;;12.42;100.00;99108.94;4993631;28;20178;-86
2022/05/03 01:27:53;;;;;;;15.27;10.50;;;;;;;12.49;100.00;99110.00;5013048;28;20669;-88
2022/05/03 01:30:18;;;;;;;16.33;11.07;;;;;;;8.53;100.00;98431.78;4955126;28;20196;-87
2022/05/03 01:32:45;;;;;;;17.33;10.87;;;;;;;8.51;100.00;98446.03;4972003;28;20555;-87
2022/05/03 01:35:14;;;;;;;16.93;11.20;;;;;;;8.28;100.00;98427.53;4972028;28;20188;-86
2022/05/03 01:38:05;;;;;;;15.20;10.33;;;;;;;12.22;100.00;99057.53;4956513;28;20180;-87
2022/05/03 01:40:52;;;;;;;16.30;10.60;;;;;;;12.63;100.00;99106.22;4971616;28;20298;-88
2022/05/03 01:43:31;;;;;;;15.20;10.50;;;;;;;12.47;100.00;99104.84;4955756;28;20570;-88
2022/05/03 01:45:57;;;;;;;17.03;11.10;;;;;;;12.43;100.00;99109.00;4971888;28;20191;-88
2022/05/03 01:50:18;;;;;;;15.63;10.83;;;;;;;12.44;100.00;99103.09;4971136;28;20202;-88
2022/05/03 01:52:09;;;;;;;17.40;11.30;;;;;;;12.51;100.00;99108.38;4971678;28;20647;-88
2022/05/03 01:54:53;;;;;;;17.17;11.00;;;;;;;11.04;100.00;98863.50;4895383;29;20190;-88
2022/05/03 01:57:32;;;;;;;15.43;10.63;;;;;;;10.64;100.00;98815.75;4894867;29;20179;-89
2022/05/03 02:00:11;;;;;;;15.23;10.50;;;;;;;11.37;100.00;98926.25;4894815;29;20228;-89
2022/05/03 02:02:59;;;;;;;17.17;11.43;;;;;;;12.47;100.00;99109.09;4897024;29;20727;-86
2022/05/03 02:05:40;;;;;;;20.73;11.07;;;;;;;12.44;100.00;99117.50;4896800;29;20195;-87
2022/05/03 02:08:10;;;;;;;16.43;11.23;;;;;;;11.72;100.00;98984.06;4933092;29;20189;-87
2022/05/03 02:10:54;;;;;;;16.67;11.33;;;;;;;12.47;100.00;99117.56;4933256;29;20169;-87
2022/05/03 02:14:43;;;;;;;14.77;10.83;;;;;;;12.50;100.00;99120.19;4934276;29;20188;-88
2022/05/03 02:16:25;;;;;;;16.57;11.03;;;;;;;10.02;100.00;98709.88;4933579;29;20196;-88
2022/05/03 02:18:57;;;;;;;16.63;11.03;;;;;;;8.20;100.00;98436.44;4932345;29;20615;-87
2022/05/03 02:21:25;;;;;;;18.17;11.30;;;;;;;7.88;100.00;98368.84;4934286;29;20302;-87
2022/05/03 02:24:12;;;;;;;16.47;11.17;;;;;;;9.62;100.00;98675.53;4934078;29;20627;-87
2022/05/03 02:26:54;;;;;;;15.63;10.53;;;;;;;8.23;100.00;98439.06;4932512;29;20244;-87
2022/05/03 02:29:30;;;;;;;17.73;11.03;;;;;;;8.44;100.00;98485.28;4989766;28;20193;-88
2022/05/03 02:32:11;;;;;;;17.00;11.60;;;;;;;8.55;100.00;98521.84;4993994;28;20619;-88
2022/05/03 02:34:47;;;;;;;17.53;11.17;;;;;;;12.12;100.00;99121.50;5011712;28;20194;-88
2022/05/03 02:37:18;;;;;;;16.47;11.23;;;;;;;7.95;100.00;98411.09;4994996;28;20253;-88
2022/05/03 02:39:54;;;;;;;16.33;11.40;;;;;;;8.76;100.00;98585.69;5029648;28;20183;-87
2022/05/03 02:42:21;;;;;;;18.53;11.53;;;;;;;8.82;100.00;98607.78;5012478;28;20166;-87
2022/05/03 02:44:48;;;;;;;17.80;11.30;;;;;;;10.56;100.00;98874.53;5003048;28;20202;-86
2022/05/03 02:47:39;;;;;;;19.80;12.20;;;;;;;10.35;100.00;98833.28;5020569;28;20274;-85
2022/05/03 02:50:18;;;;;;;15.80;11.67;;;;;;;11.99;100.00;99132.06;5013373;28;20175;-88
2022/05/03 02:52:55;;;;;;;20.67;12.43;;;;;;;12.06;100.00;99133.16;5012674;28;20634;-88
2022/05/03 02:55:25;;;;;;;18.37;12.73;;;;;;;10.53;100.00;98882.00;5012463;28;20163;-88
2022/05/03 02:58:23;;;;;;;18.17;11.83;;;;;;;8.63;100.00;98565.88;5011319;28;20617;-88
2022/05/03 03:04:15;;;;;;;21.53;13.30;;;;;;;12.01;100.00;99181.19;5014153;28;20263;-88
2022/05/03 03:06:42;;;;;;;18.93;13.03;;;;;;;8.90;100.00;98639.22;5004629;28;20199;-89
2022/05/03 03:09:09;;;;;;;22.13;12.87;;;;;;;10.56;100.00;98892.22;5018988;28;20258;-88
2022/05/03 03:11:52;;;;;;;19.40;13.17;;;;;;;8.37;100.00;98535.44;5000704;28;20170;-88
2022/05/03 03:14:42;;;;;;;17.73;12.53;;;;;;;8.07;100.00;98493.09;5018381;28;20623;-88
2022/05/03 03:17:09;;;;;;;20.60;12.33;;;;;;;8.79;100.00;98641.34;5000800;28;20182;-89
2022/05/03 03:19:50;;;;;;;18.63;11.97;;;;;;;12.04;100.00;99167.72;5017729;28;20183;-89
2022/05/03 03:22:16;;;;;;;19.27;12.00;;;;;;;8.35;100.00;98567.28;5015988;28;20162;-88
2022/05/03 03:24:47;;;;;;;20.13;12.17;;;;;;;8.94;100.00;98694.06;5015458;28;20171;-88
2022/05/03 03:27:14;;;;;;;18.27;12.00;;;;;;;8.57;100.00;98618.59;5032499;28;20217;-87
2022/05/03 03:29:41;;;;;;;18.10;11.20;;;;;;;11.85;100.00;99201.75;5016236;28;20197;-89
2022/05/03 03:32:07;;;;;;;19.23;11.33;;;;;;;9.43;100.00;98780.13;4999854;28;20233;-88
2022/05/03 03:34:43;;;;;;;19.57;12.10;;;;;;;8.55;100.00;98620.22;5016203;28;20162;-89
2022/05/03 03:37:11;;;;;;;20.37;12.23;;;;;;;8.40;100.00;98609.56;5016488;28;20547;-88
2022/05/03 03:39:36;;;;;;;20.27;13.10;;;;;;;8.80;100.00;98668.31;5017022;28;20166;-88
2022/05/03 03:42:03;;;;;;;23.17;13.60;;;;;;;7.62;100.00;98474.50;5016237;28;20166;-87
2022/05/03 03:44:30;;;;;;;21.43;12.97;;;;;;;9.53;100.00;98797.38;5016630;28;20175;-90
2022/05/03 03:46:57;;;;;;;18.17;12.63;;;;;;;8.59;100.00;98614.50;4997153;28;20203;-88
2022/05/03 03:49:23;;;;;;;19.93;12.47;;;;;;;10.70;100.00;98971.19;4997696;28;20552;-87
2022/05/03 03:51:50;;;;;;;21.37;13.93;;;;;;;9.52;100.00;98750.16;5015080;28;20242;-88
2022/05/03 03:54:16;;;;;;;13.17;9.63;;;;;;;9.21;100.00;98701.81;5016621;28;20178;-89
2022/05/03 03:56:44;;;;;;;19.47;10.93;;;;;;;8.87;100.00;98649.22;4997029;28;20249;-88
2022/05/03 03:59:10;;;;;;;18.13;11.00;;;;;;;9.20;100.00;98708.53;5015635;28;20155;-88
2022/05/03 04:01:36;;;;;;;18.93;12.07;;;;;;;9.70;100.00;98843.47;4997454;28;20171;-89
2022/05/03 04:04:03;;;;;;;20.37;12.30;;;;;;;8.11;100.00;98530.19;5020544;28;20171;-88
2022/05/03 04:06:29;;;;;;;17.67;12.53;;;;;;;8.10;100.00;98517.56;5021576;28;20577;-88
2022/05/03 04:08:54;;;;;;;20.37;14.47;;;;;;;9.58;100.00;98821.16;4997604;28;20169;-87
2022/05/03 04:11:20;;;;;;;21.33;13.20;;;;;;;8.02;100.00;98534.03;4995558;28;20675;-88
2022/05/03 04:13:45;;;;;;;19.60;12.10;;;;;;;6.98;100.00;98397.16;4995751;28;20646;-88
2022/05/03 04:16:11;;;;;;;18.03;11.87;;;;;;;7.61;100.00;98464.34;4996174;28;20317;-88
2022/05/03 04:18:46;;;;;;;20.30;12.27;;;;;;;9.46;100.00;98760.03;5014123;28;20615;-88
2022/05/03 04:21:13;;;;;;;16.00;11.07;;;;;;;8.63;100.00;98645.72;5014283;28;20162;-88
2022/05/03 04:23:39;;;;;;;17.13;10.33;;;;;;;9.25;100.00;98734.84;4996161;28;20261;-88
2022/05/03 04:26:04;;;;;;;16.70;9.67;;;;;;;11.10;100.00;99063.84;4992503;28;20317;-88
2022/05/03 04:28:30;;;;;;;16.33;10.47;;;;;;;10.63;100.00;99035.91;4996851;28;20303;-87
2022/05/03 04:30:55;;;;;;;14.40;9.73;;;;;;;10.61;100.00;99020.69;4998348;28;20171;-89
2022/05/03 04:33:20;;;;;;;21.27;11.67;;;;;;;7.83;100.00;98587.00;4994561;28;20160;-88
2022/05/03 04:35:46;;;;;;;106.47;59.60;;;;;;;8.06;100.00;98604.78;4993029;28;20230;-89
2022/05/03 04:38:11;;;;;;;29.77;17.90;;;;;;;9.83;100.00;98904.66;4993684;28;20562;-87
2022/05/03 04:40:37;;;;;;;25.17;16.30;;;;;;;10.62;100.00;99056.97;4993973;28;20530;-88
2022/05/03 04:43:02;;;;;;;29.30;17.97;;;;;;;8.89;100.00;98825.16;4994640;28;20167;-88
2022/05/03 04:45:28;;;;;;;26.60;16.23;;;;;;;7.69;100.00;98584.75;4993804;28;20666;-86
2022/05/03 04:47:53;;;;;;;30.23;17.83;;;;;;;9.20;100.00;98844.06;4992994;28;20179;-86
2022/05/03 04:50:19;;;;;;;29.33;18.43;;;;;;;8.41;100.00;98744.91;4993603;28;20538;-87
2022/05/03 04:52:44;;;;;;;28.27;17.17;;;;;;;8.61;100.00;98741.53;4993669;28;20167;-88
2022/05/03 04:55:12;;;;;;;25.77;16.70;;;;;;;8.42;100.00;98702.91;4993375;28;20671;-87
2022/05/03 04:57:38;;;;;;;25.57;16.00;;;;;;;6.66;100.00;98426.00;4993587;28;20172;-88
2022/05/03 05:00:09;;;;;;;24.57;15.87;;;;;;;7.65;100.00;98572.84;4993858;28;20159;-87
2022/05/03 05:02:41;;;;;;;25.37;16.37;;;;;;;9.64;100.00;98932.53;4993617;28;20167;-89
2022/05/03 05:05:10;;;;;;;33.97;20.70;;;;;;;6.83;100.00;98466.97;5008121;28;20189;-88
2022/05/03 05:07:36;;;;;;;24.50;15.10;;;;;;;8.26;100.00;98729.13;5050065;28;20172;-86
2022/05/03 05:12:45;;;;;;;16.70;11.43;;;;;;;6.82;100.00;98490.38;4993565;28;20232;-88
2022/05/03 05:15:27;;;;;;;16.57;10.30;;;;;;;8.45;100.00;98803.91;4992628;28;20171;-86
2022/05/03 05:17:54;;;;;;;13.10;8.60;;;;;;;9.59;100.00;98999.72;4993737;28;20171;-87
2022/05/03 05:20:20;;;;;;;21.10;14.90;;;;;;;6.49;100.00;98504.84;4995128;28;20186;-87
2022/05/03 05:22:46;;;;;;;20.87;13.83;;;;;;;9.51;100.00;99006.13;4994942;28;20168;-88
2022/05/03 05:25:11;;;;;;;38.57;23.10;;;;;;;10.72;100.00;99243.84;4998581;28;20225;-87
2022/05/03 05:27:37;;;;;;;42.00;25.03;;;;;;;7.80;100.00;98698.56;5011915;28;20179;-86
2022/05/03 05:30:06;;;;;;;42.23;23.33;;;;;;;6.67;100.00;98548.44;5012350;28;20170;-86
2022/05/03 05:32:36;;;;;;;19.83;13.43;;;;;;;6.94;100.00;98674.56;5012306;28;20171;-86
2022/05/03 05:35:10;;;;;;;38.73;19.13;;;;;;;10.37;100.00;99276.97;5012111;28;20194;-87
2022/05/03 05:37:36;;;;;;;18.90;13.57;;;;;;;6.39;100.00;98603.25;4994299;28;20236;-87
2022/05/03 05:40:01;;;;;;;13.83;10.47;;;;;;;7.89;100.00;98834.19;5011984;28;20643;-86
2022/05/03 05:42:27;;;;;;;11.07;7.53;;;;;;;10.38;100.00;99271.13;4996844;28;20175;-89
2022/05/03 05:44:55;;;;;;;17.27;12.33;;;;;;;8.24;100.00;98945.03;5015364;28;20242;-88
2022/05/03 05:47:22;;;;;;;15.43;10.70;;;;;;;9.33;100.00;99111.47;4996473;28;20222;-89
2022/05/03 05:49:52;;;;;;;16.43;11.23;;;;;;;7.84;100.00;98845.72;4980996;28;20718;-87
2022/05/03 05:55:07;;;;;;;14.60;8.97;;;;;;;7.46;100.00;98789.44;5012954;28;20205;-87
2022/05/03 05:57:33;;;;;;;11.87;8.20;;;;;;;8.79;100.00;99007.25;4992915;28;20202;-85
2022/05/03 05:59:59;;;;;;;14.67;9.00;;;;;;;7.00;100.00;98752.88;4992480;28;20191;-86
2022/05/03 06:02:31;;;;;;;22.33;14.67;;;;;;;9.08;100.00;99103.59;5024729;28;20190;-85
2022/05/03 06:04:56;;;;;;;34.03;24.23;;;;;;;9.02;100.00;99151.28;4994267;28;20185;-85
2022/05/03 06:07:22;;;;;;;103.77;66.80;;;;;;;8.59;100.00;99045.91;5014650;28;20779;-86
2022/05/03 06:09:47;;;;;;;39.70;29.10;;;;;;;9.15;100.00;99139.28;5031072;28;20197;-87
2022/05/03 06:12:12;;;;;;;89.00;56.67;;;;;;;10.02;100.00;99278.84;4997134;28;20187;-87
2022/05/03 06:14:38;;;;;;;30.73;23.43;;;;;;;10.09;100.00;99285.00;5012218;28;20553;-86
2022/05/03 06:17:03;;;;;;;30.30;20.83;;;;;;;9.74;100.00;99215.22;5012252;28;20608;-86
2022/05/03 06:19:29;;;;;;;22.13;15.80;;;;;;;10.17;100.00;99283.72;5013032;28;20647;-86
2022/05/03 06:21:54;;;;;;;36.10;23.57;;;;;;;9.31;100.00;99077.72;4994588;28;20182;-86
2022/05/03 06:24:29;;;;;;;33.30;22.47;;;;;;;9.39;100.00;99072.16;5027575;28;20182;-88
2022/05/03 06:26:54;;;;;;;23.40;15.17;;;;;;;7.02;100.00;98626.34;4994988;28;20895;-88
2022/05/03 06:29:20;;;;;;;21.37;13.77;;;;;;;9.46;100.00;99059.00;4994686;28;20195;-87
2022/05/03 06:31:45;;;;;;;23.50;14.13;;;;;;;10.25;100.00;99230.91;4993542;28;21269;-86
2022/05/03 06:34:12;;;;;;;17.87;10.80;;;;;;;10.69;100.00;99294.38;5001118;28;20741;-88
2022/05/03 06:36:37;;;;;;;14.40;9.43;;;;;;;8.92;100.00;99016.25;4996607;28;20222;-86
2022/05/03 06:39:06;;;;;;;20.87;12.60;;;;;;;8.01;100.00;98857.41;4996005;28;20588;-86
2022/05/03 06:41:32;;;;;;;14.13;8.97;;;;;;;8.04;100.00;98875.19;5017662;28;20722;-86
2022/05/03 06:43:58;;;;;;;14.67;8.33;;;;;;;7.83;100.00;98828.88;5019486;28;20565;-86
2022/05/03 06:46:28;;;;;;;35.00;21.33;;;;;;;10.59;100.00;99307.44;5018922;28;20205;-86
2022/05/03 06:48:54;;;;;;;20.47;13.70;;;;;;;8.37;100.00;98921.25;5028028;28;20213;-87
2022/05/03 06:51:20;;;;;;;65.63;30.13;;;;;;;6.57;100.00;98619.19;5027212;28;20253;-89
2022/05/03 06:53:56;;;;;;;20.17;11.17;;;;;;;10.04;100.00;99224.13;4998282;28;20194;-88
2022/05/03 06:56:21;;;;;;;21.23;12.63;;;;;;;9.39;100.00;99083.97;5029909;28;20182;-88
2022/05/03 06:58:47;;;;;;;13.80;8.53;;;;;;;7.30;100.00;98774.41;5015642;28;20627;-86
2022/05/03 07:01:14;;;;;;;14.33;8.43;;;;;;;9.41;100.00;99158.13;4996700;28;20568;-87
2022/05/03 07:03:41;;;;;;;14.20;8.50;;;;;;;7.41;100.00;98758.16;5014990;28;20185;-86
2022/05/03 07:06:07;;;;;;;8.37;6.30;;;;;;;10.87;100.00;99309.47;4997315;28;20203;-88
2022/05/03 07:08:34;;;;;;;34.13;18.40;;;;;;;8.83;100.00;98994.00;5019141;28;20269;-87
2022/05/03 07:10:59;;;;;;;33.97;20.10;;;;;;;8.11;100.00;98845.28;5000567;28;20574;-88
2022/05/03 07:13:31;;;;;;;23.47;14.67;;;;;;;6.10;100.00;98491.31;5019611;28;20183;-88
2022/05/03 07:16:02;;;;;;;17.97;10.00;;;;;;;8.45;100.00;98867.84;5020440;28;20194;-88
2022/05/03 07:24:02;;;;;;;19.27;12.37;;;;;;;7.41;100.00;98685.13;5026315;28;20274;-87
2022/05/03 07:26:28;;;;;;;13.43;6.63;;;;;;;8.85;100.00;98944.44;5019683;28;20238;-87
2022/05/03 07:28:53;;;;;;;9.90;6.20;;;;;;;10.28;100.00;99188.03;5019171;28;20531;-88
2022/05/03 07:31:20;;;;;;;10.83;6.47;;;;;;;10.45;100.00;99222.47;5024687;28;20187;-87
2022/05/03 07:33:47;;;;;;;10.10;7.30;;;;;;;9.87;100.00;99113.81;5030106;28;20183;-88
2022/05/03 07:36:12;;;;;;;12.30;7.43;;;;;;;7.99;100.00;98790.97;4996801;28;20240;-88
2022/05/03 07:38:38;;;;;;;9.80;6.90;;;;;;;6.74;100.00;98557.97;5013676;28;20190;-88
2022/05/03 07:41:05;;;;;;;9.43;6.27;;;;;;;9.35;100.00;98984.44;5014847;28;20577;-87
2022/05/03 07:43:31;;;;;;;9.90;6.60;;;;;;;10.89;100.00;99254.66;5015982;28;20209;-88
2022/05/03 07:45:56;;;;;;;8.97;6.00;;;;;;;11.23;100.00;99326.13;5018901;28;20197;-89
2022/05/03 07:48:22;;;;;;;10.10;5.97;;;;;;;9.12;100.00;98989.34;5015611;28;20182;-87
2022/05/03 07:50:47;;;;;;;9.40;6.00;;;;;;;10.93;100.00;99320.69;5036772;28;20229;-89
2022/05/03 07:53:13;;;;;;;10.77;6.43;;;;;;;9.75;100.00;99090.53;5003621;28;20663;-88
2022/05/03 07:55:39;;;;;;;8.63;6.20;;;;;;;10.62;100.00;99246.81;5000959;28;20557;-86
2022/05/03 07:58:05;;;;;;;9.57;6.10;;;;;;;10.92;100.00;99282.66;5010866;28;20185;-87
2022/05/03 08:00:31;;;;;;;11.00;6.13;;;;;;;9.12;100.00;98979.25;5012474;28;20250;-88
2022/05/03 08:02:57;;;;;;;11.67;7.90;;;;;;;6.64;100.00;98560.88;5013145;28;20248;-87
2022/05/03 08:05:23;;;;;;;10.30;6.20;;;;;;;8.62;100.00;98892.13;5029535;28;20178;-89
2022/05/03 08:07:49;;;;;;;8.77;5.77;;;;;;;9.25;100.00;98991.56;5014513;28;20190;-87
2022/05/03 08:10:15;;;;;;;8.83;5.83;;;;;;;9.47;100.00;99037.16;5014434;28;20257;-88
2022/05/03 08:12:41;;;;;;;8.60;6.33;;;;;;;10.93;100.00;99234.56;5009882;28;20182;-91
2022/05/03 08:15:55;;;;;;;10.43;7.37;;;;;;;11.32;100.00;99310.44;5013710;28;20213;-92
2022/05/03 08:18:21;;;;;;;8.20;5.80;;;;;;;8.85;100.00;98941.91;4989840;28;20897;-88
2022/05/03 08:20:46;;;;;;;12.17;7.67;;;;;;;11.01;100.00;99333.69;4986798;28;20198;-86
2022/05/03 08:23:12;;;;;;;9.03;6.53;;;;;;;11.07;100.00;99329.72;5019001;28;20201;-87
2022/05/03 08:25:37;;;;;;;8.30;6.40;;;;;;;10.70;100.00;99329.00;4986585;28;20257;-87
2022/05/03 08:28:04;;;;;;;8.80;6.07;;;;;;;8.02;100.00;98896.97;4986336;28;20274;-87
2022/05/03 08:30:30;;;;;;;13.43;7.23;;;;;;;7.69;100.00;98868.56;5004808;28;20183;-87
2022/05/03 08:32:55;;;;;;;16.70;9.90;;;;;;;8.59;100.00;98990.38;4984359;28;20614;-87
2022/05/03 08:35:24;;;;;;;16.30;9.07;;;;;;;10.06;100.00;99214.06;4984731;28;20191;-87
2022/05/03 08:43:17;;;;;;;14.10;9.60;;;;;;;9.44;100.00;99100.16;4984401;28;20194;-89
2022/05/03 08:45:48;;;;;;;13.80;9.00;;;;;;;10.47;100.00;99294.25;5017126;28;20202;-87
2022/05/03 08:48:16;;;;;;;15.27;8.40;;;;;;;10.76;100.00;99339.41;5034912;28;20186;-87
2022/05/03 08:50:42;;;;;;;21.97;11.97;;;;;;;10.73;100.00;99291.16;4985476;28;20257;-89
2022/05/03 08:53:09;;;;;;;45.83;33.43;;;;;;;11.17;100.00;99341.09;4978904;28;20191;-85
2022/05/03 08:55:35;;;;;;;51.33;36.10;;;;;;;10.94;100.00;99291.16;4992159;28;20255;-85
2022/05/03 08:58:00;;;;;;;20.07;13.10;;;;;;;11.05;100.00;99285.72;4991937;28;20187;-81
2022/05/03 09:00:26;;;;;;;41.73;23.03;;;;;;;10.55;100.00;99181.56;4990032;28;20277;-84
2022/05/03 09:02:56;;;;;;;36.23;24.83;;;;;;;11.46;100.00;99289.88;4972190;28;20245;-83
2022/05/03 09:05:23;;;;;;;38.10;26.07;;;;;;;11.68;100.00;99365.94;4991118;28;20191;-82
2022/05/03 09:07:53;;;;;;;25.57;17.67;;;;;;;10.68;100.00;99155.94;4991190;28;20195;-83
2022/05/03 09:10:20;;;;;;;26.53;17.17;;;;;;;12.00;100.00;99353.66;4990821;28;20175;-82
2022/05/03 09:12:46;;;;;;;16.73;10.33;;;;;;;12.18;100.00;99352.66;4990080;28;20194;-82
2022/05/03 09:15:12;;;;;;;13.50;9.03;;;;;;;10.98;100.00;99124.19;4991518;28;20479;-83
2022/05/03 09:17:43;;;;;;;15.13;9.87;;;;;;;11.51;100.00;99170.91;4993038;28;20218;-86
2022/05/03 09:26:23;;;;;;;20.27;12.73;;;;;;;13.40;98.26;99350.97;4949314;28;20217;-85
2022/05/03 09:28:50;;;;;;;16.67;10.43;;;;;;;13.34;94.75;99311.75;4951777;28;20201;-87
2022/05/03 09:31:34;;;;;;;7.37;4.70;;;;;;;13.59;91.72;99355.81;4950806;28;20227;-84
2022/05/03 09:34:29;;;;;;;8.30;5.23;;;;;;;13.64;90.74;99358.47;4951374;28;20184;-85
2022/05/03 09:36:58;;;;;;;10.10;6.10;;;;;;;13.47;89.99;99289.28;4951412;28;20205;-85
2022/05/03 09:39:41;;;;;;;9.37;6.70;;;;;;;14.01;87.71;99352.78;4951652;28;20193;-85
2022/05/03 09:42:10;;;;;;;9.30;6.07;;;;;;;13.68;88.71;99360.28;4952988;28;20188;-85
2022/05/03 09:44:52;;;;;;;6.83;5.30;;;;;;;13.83;88.01;99362.44;4973503;28;20260;-83
2022/05/03 09:47:23;;;;;;;7.87;5.90;;;;;;;13.43;88.22;99305.25;4975097;28;20219;-84
2022/05/03 09:49:48;;;;;;;9.07;5.70;;;;;;;13.69;87.96;99353.53;4947196;28;20280;-85
2022/05/03 09:52:27;;;;;;;8.10;5.73;;;;;;;13.64;86.36;99363.56;4951265;28;20284;-84
2022/05/03 09:54:58;;;;;;;15.63;8.70;;;;;;;12.38;87.09;99137.59;4950705;28;20687;-84
2022/05/03 09:57:25;;;;;;;12.63;7.23;;;;;;;12.84;86.00;99203.38;4937243;28;20251;-86
2022/05/03 09:59:53;;;;;;;11.57;7.60;;;;;;;13.27;87.92;99261.50;4937500;28;20193;-86
2022/05/03 10:02:21;;;;;;;5.43;3.60;;;;;;;13.93;83.22;99364.44;4961624;28;20206;-86
2022/05/03 10:04:48;;;;;;;5.67;3.73;;;;;;;13.90;85.04;99366.91;4995106;28;20194;-84
2022/05/03 10:07:14;;;;;;;6.47;4.70;;;;;;;13.85;88.06;99373.50;4995500;28;20209;-84
2022/05/03 10:09:44;;;;;;;4.47;3.63;;;;;;;13.81;87.57;99364.94;4993358;28;20635;-86
2022/05/03 10:12:11;;;;;;;4.53;3.50;;;;;;;13.70;86.14;99361.22;4991922;28;20186;-86
2022/05/03 10:14:41;;;;;;;6.63;4.37;;;;;;;13.66;87.52;99345.78;4994205;28;20183;-85
2022/05/03 10:22:46;;;;;;;7.37;4.80;;;;;;;13.96;83.31;99318.72;4998560;28;20217;-88
2022/05/03 10:25:12;;;;;;;5.30;4.40;;;;;;;13.61;85.06;99254.09;4980662;28;20286;-86
2022/05/03 10:27:55;;;;;;;27.73;17.97;;;;;;;13.92;84.07;99360.19;4997561;28;20934;-86
2022/05/03 10:30:23;;;;;;;10.37;5.73;;;;;;;13.47;85.32;99284.19;4977190;28;20192;-86
2022/05/03 10:33:19;;;;;;;8.77;5.87;;;;;;;13.83;84.18;99354.81;4991246;28;20183;-86
2022/05/03 10:35:48;;;;;;;12.33;7.67;;;;;;;14.08;84.65;99350.50;4998497;28;20242;-86
2022/05/03 10:38:14;;;;;;;7.90;5.30;;;;;;;13.87;84.51;99333.72;4980530;28;20190;-86
2022/05/03 10:40:42;;;;;;;7.20;4.30;;;;;;;13.20;85.58;99247.78;4996863;28;20187;-86
2022/05/03 10:43:29;;;;;;;9.77;6.70;;;;;;;13.27;87.03;99239.50;4998249;28;20191;-87
2022/05/03 10:46:07;;;;;;;5.37;3.90;;;;;;;12.17;84.74;98952.50;5021380;28;20206;-87
2022/05/03 10:48:41;;;;;;;5.47;4.60;;;;;;;14.25;79.18;99233.84;5025233;28;20185;-85
2022/05/03 10:51:34;;;;;;;5.97;4.37;;;;;;;12.06;76.69;98778.81;5005213;28;20230;-86
2022/05/03 10:54:11;;;;;;;;;;;;;;;;;;;;;
2022/05/03 10:57:29;;;;;;;7.03;4.37;;;;;;;13.90;74.35;98997.91;4953426;29;20255;-86
2022/05/03 11:00:09;;;;;;;8.77;6.80;;;;;;;13.34;74.52;98849.03;4839987;29;20208;-87
2022/05/03 11:03:10;;;;;;;9.67;6.83;;;;;;;15.95;74.77;99294.88;4856985;29;20224;-86
2022/05/03 11:06:36;;;;;;;;;;;;;;;;;;;;;
2022/05/03 11:17:11;;;;;;;;;;;;;;;;;;;;;
2022/05/03 11:20:47;;;;;;;;;;;;;;;;;;;;;
2022/05/03 11:23:30;;;;;;;9.20;5.33;;;;;;;15.92;73.14;99343.31;4749557;30;20216;-87
2022/05/03 11:33:23;;;;;;;10.20;6.00;;;;;;;12.94;73.63;98819.22;4732190;30;20209;-86
2022/05/03 11:36:19;;;;;;;5.23;4.33;;;;;;;11.62;74.69;98741.19;4785341;30;20307;-86
2022/05/03 11:39:13;;;;;;;13.73;9.17;;;;;;;15.25;75.75;99330.66;4784998;30;20217;-86
2022/05/03 11:42:10;;;;;;;69.10;36.27;;;;;;;14.47;75.90;99124.09;4786302;30;20207;-86
2022/05/03 11:45:01;;;;;;;20.37;10.60;;;;;;;12.62;74.08;98716.84;4803069;29;20198;-86
2022/05/03 11:48:19;;;;;;;5.77;3.83;;;;;;;14.51;73.54;99023.97;4803984;29;20250;-86
2022/05/03 11:56:29;;;;;;;6.10;4.90;;;;;;;15.59;73.23;99203.09;4895467;29;20218;-86
2022/05/03 11:59:00;;;;;;;5.67;3.60;;;;;;;13.60;69.57;98792.00;4895226;29;20254;-87
2022/05/03 12:02:11;;;;;;;8.10;5.70;;;;;;;16.48;72.72;99306.16;4895827;29;20254;-88
2022/05/03 12:05:17;;;;;;;5.43;4.27;;;;;;;13.78;72.33;98809.34;4912895;29;20206;-85
2022/05/03 12:08:19;;;;;;;14.33;8.90;;;;;;;17.28;73.12;99306.69;4920273;29;20255;-84
2022/05/03 12:10:49;;;;;;;7.73;5.17;;;;;;;14.31;70.06;98750.16;4898451;29;20670;-87
2022/05/03 12:13:34;;;;;;;8.37;5.23;;;;;;;16.79;69.76;99234.28;4899447;29;20195;-86
2022/05/03 12:16:29;;;;;;;6.40;4.77;;;;;;;17.14;71.04;99298.78;4906139;29;20322;-86
2022/05/03 12:19:03;;;;;;;7.83;5.13;;;;;;;13.70;72.49;98803.25;4863418;29;20294;-86
2022/05/03 12:21:31;;;;;;;9.83;5.80;;;;;;;17.18;70.94;99320.16;4895077;29;20202;-86
2022/05/03 12:24:06;;;;;;;50.00;26.37;;;;;;;14.02;69.42;98718.25;4918046;29;20201;-86
2022/05/03 12:26:41;;;;;;;4.63;3.57;;;;;;;15.89;69.35;99088.81;4901258;29;20304;-86
2022/05/03 12:29:08;;;;;;;5.33;3.80;;;;;;;16.80;70.10;99276.94;4901543;29;20259;-87
2022/05/03 12:31:39;;;;;;;3.90;3.40;;;;;;;17.14;68.89;99303.88;4916470;29;20216;-87
2022/05/03 12:34:13;;;;;;;3.70;3.23;;;;;;;16.61;68.47;99203.31;4916187;29;20185;-86
2022/05/03 12:36:44;;;;;;;4.13;3.37;;;;;;;16.77;68.04;99224.88;4914728;29;20737;-85
2022/05/03 12:39:15;;;;;;;5.43;3.87;;;;;;;15.48;70.64;99304.06;4915187;29;20273;-86
2022/05/03 12:41:41;;;;;;;4.87;3.87;;;;;;;16.16;71.07;99296.97;4908563;29;20201;-86
2022/05/03 12:44:14;;;;;;;5.30;3.83;;;;;;;16.32;71.18;99301.56;4938640;29;20195;-86